Time;durP1;ratioP1;P1;durP2;ratioP2;P2;SDS_P1;SDS_P2;PMS_P1;PMS_P2;Temp;Humidity;BMP_temperature;BMP_pressure;BME280_temperature;BME280_humidity;BME280_pressure;Samples;Min_cycle;Max_cycle;Signal;HPM_P1;HPM_P2
2023/05/19 00:00:56;;;;;;;2.47;1.00;;;11.20;56.40;;;;;;4995500;28;20045;-76
2023/05/19 00:03:22;;;;;;;3.58;0.70;;;11.10;56.60;;;;;;4995212;28;20048;-76
2023/05/19 00:05:48;;;;;;;2.00;0.88;;;11.10;56.60;;;;;;4996993;28;20033;-76
2023/05/19 00:08:16;;;;;;;3.55;0.80;;;11.10;56.80;;;;;;5014904;28;20045;-76
2023/05/19 00:10:42;;;;;;;3.30;0.98;;;11.00;57.00;;;;;;4994431;28;20041;-76
2023/05/19 00:13:08;;;;;;;6.78;1.90;;;10.90;57.00;;;;;;4998358;28;20071;-76
2023/05/19 00:15:34;;;;;;;3.30;1.10;;;10.90;57.20;;;;;;5014062;28;20047;-76
2023/05/19 00:18:00;;;;;;;4.88;1.20;;;10.80;57.30;;;;;;4999702;28;20049;-75
2023/05/19 00:20:26;;;;;;;3.25;1.05;;;10.70;57.30;;;;;;4982889;28;20136;-76
2023/05/19 00:22:51;;;;;;;2.42;0.95;;;10.70;57.50;;;;;;4976667;28;20038;-76
2023/05/19 00:25:17;;;;;;;3.50;0.90;;;10.60;57.60;;;;;;4998830;28;20508;-76
2023/05/19 00:27:42;;;;;;;1.95;1.00;;;10.60;57.80;;;;;;5017970;28;20128;-76
2023/05/19 00:30:08;;;;;;;3.90;0.88;;;10.60;57.90;;;;;;5005000;28;20057;-76
2023/05/19 00:32:34;;;;;;;2.03;1.00;;;10.50;57.90;;;;;;4995251;28;20042;-76
2023/05/19 00:34:59;;;;;;;2.63;0.90;;;10.50;58.10;;;;;;4996723;28;20746;-76
2023/05/19 00:37:25;;;;;;;2.50;0.80;;;10.50;58.00;;;;;;4996074;28;20510;-76
2023/05/19 00:39:51;;;;;;;3.20;1.15;;;10.50;58.20;;;;;;4981169;28;20045;-76
2023/05/19 00:42:16;;;;;;;3.35;1.20;;;10.40;58.10;;;;;;4981960;28;20128;-76
2023/05/19 00:44:42;;;;;;;3.55;1.98;;;10.40;58.30;;;;;;4982739;28;20029;-76
2023/05/19 00:47:07;;;;;;;4.40;1.10;;;10.30;58.40;;;;;;4997954;28;20041;-76
2023/05/19 00:49:33;;;;;;;3.75;1.30;;;10.30;58.70;;;;;;4997949;28;20033;-75
2023/05/19 00:52:00;;;;;;;6.80;1.05;;;10.30;58.60;;;;;;4964454;28;20037;-76
2023/05/19 00:54:26;;;;;;;3.55;1.10;;;10.20;58.70;;;;;;4981706;28;20033;-76
2023/05/19 00:56:53;;;;;;;3.72;1.27;;;10.20;58.70;;;;;;4981439;28;20586;-77
2023/05/19 00:59:18;;;;;;;3.40;1.20;;;10.10;58.90;;;;;;4998903;28;20064;-76
2023/05/19 01:01:47;;;;;;;4.18;1.00;;;10.10;58.90;;;;;;4997474;28;20049;-75
2023/05/19 01:04:24;;;;;;;6.47;1.20;;;10.00;59.00;;;;;;4982971;28;20184;-76
2023/05/19 01:06:55;;;;;;;2.22;0.88;;;10.00;59.20;;;;;;4983533;28;20117;-76
2023/05/19 01:09:21;;;;;;;4.88;1.15;;;10.00;59.20;;;;;;5014014;28;20068;-76
2023/05/19 01:11:48;;;;;;;3.28;1.20;;;9.90;59.90;;;;;;4964822;28;20101;-76
2023/05/19 01:14:14;;;;;;;1.98;0.70;;;9.90;59.30;;;;;;4977053;28;20117;-77
2023/05/19 01:16:41;;;;;;;4.65;1.02;;;9.90;59.50;;;;;;4981029;28;20398;-76
2023/05/19 01:19:34;;;;;;;2.22;0.98;;;9.80;59.60;;;;;;4984782;28;20033;-76
2023/05/19 01:22:21;;;;;;;5.03;1.17;;;9.80;59.90;;;;;;4982429;28;20356;-76
2023/05/19 01:25:12;;;;;;;2.53;0.95;;;9.80;60.20;;;;;;5006648;28;20064;-76
2023/05/19 01:27:40;;;;;;;3.88;1.52;;;9.80;60.00;;;;;;4989056;28;20574;-77
2023/05/19 01:30:24;;;;;;;2.35;1.13;;;9.70;59.80;;;;;;4991688;28;20421;-75
2023/05/19 01:32:52;;;;;;;3.28;1.17;;;9.70;60.40;;;;;;4997421;28;20045;-75
2023/05/19 01:35:17;;;;;;;2.75;0.75;;;9.60;60.10;;;;;;4994571;28;20154;-76
2023/05/19 01:37:44;;;;;;;3.63;1.20;;;9.60;60.10;;;;;;4998017;28;20044;-75
2023/05/19 01:40:09;;;;;;;3.30;1.25;;;9.50;60.10;;;;;;4980590;28;20124;-75
2023/05/19 01:42:38;;;;;;;2.28;1.05;;;9.50;60.30;;;;;;4995491;28;20063;-76
2023/05/19 01:45:10;;;;;;;2.00;1.13;;;9.50;60.40;;;;;;4996210;28;20073;-76
2023/05/19 01:47:39;;;;;;;2.50;1.02;;;9.50;60.60;;;;;;4999118;28;20837;-77
2023/05/19 01:50:05;;;;;;;1.67;0.93;;;9.40;60.70;;;;;;4962295;28;20432;-75
2023/05/19 01:52:31;;;;;;;2.05;0.77;;;9.40;60.70;;;;;;4984589;28;20488;-76
2023/05/19 01:54:56;;;;;;;4.15;1.20;;;9.40;60.80;;;;;;4993273;28;20033;-76
2023/05/19 01:57:42;;;;;;;2.92;1.10;;;9.30;60.90;;;;;;4996059;28;20740;-76
2023/05/19 02:00:10;;;;;;;3.13;1.42;;;9.30;61.10;;;;;;5006794;28;20042;-76
2023/05/19 02:03:05;;;;;;;1.83;1.08;;;9.20;61.20;;;;;;5003802;28;20042;-76
2023/05/19 02:05:39;;;;;;;1.60;0.85;;;9.20;61.60;;;;;;4990517;28;20154;-76
2023/05/19 02:08:19;;;;;;;4.13;0.80;;;9.20;61.40;;;;;;5004460;28;20085;-76
2023/05/19 02:10:49;;;;;;;2.60;1.00;;;9.10;61.60;;;;;;5012759;28;20040;-76
2023/05/19 02:13:15;;;;;;;3.95;1.02;;;9.10;61.60;;;;;;4996316;28;20057;-76
2023/05/19 02:15:41;;;;;;;2.85;1.20;;;9.10;61.60;;;;;;4996302;28;20029;-76
2023/05/19 02:18:12;;;;;;;4.60;1.27;;;9.00;61.70;;;;;;4996141;28;20905;-76
2023/05/19 02:20:38;;;;;;;2.25;1.00;;;9.00;61.90;;;;;;5011661;28;20523;-76
2023/05/19 02:23:04;;;;;;;5.68;1.30;;;9.00;61.90;;;;;;4995782;28;20042;-76
2023/05/19 02:25:30;;;;;;;3.42;1.15;;;9.00;62.00;;;;;;5010654;28;20037;-77
2023/05/19 02:27:56;;;;;;;2.47;1.10;;;8.90;62.00;;;;;;5012761;28;20103;-76
2023/05/19 02:30:22;;;;;;;4.32;1.30;;;8.90;62.20;;;;;;4995532;28;20088;-76
2023/05/19 02:32:47;;;;;;;10.50;1.38;;;8.90;62.30;;;;;;5013485;28;20520;-75
2023/05/19 02:35:13;;;;;;;3.17;1.27;;;8.80;62.40;;;;;;5010438;28;20061;-76
2023/05/19 02:37:38;;;;;;;3.22;1.00;;;8.80;62.50;;;;;;5005372;28;20460;-76
2023/05/19 02:40:05;;;;;;;4.57;1.02;;;8.80;62.60;;;;;;5010093;28;20520;-76
2023/05/19 02:42:30;;;;;;;2.90;0.95;;;8.70;62.70;;;;;;5010952;28;20047;-75
2023/05/19 02:44:56;;;;;;;2.22;1.00;;;8.70;62.80;;;;;;5006048;28;20032;-75
2023/05/19 02:47:21;;;;;;;1.27;0.95;;;8.70;62.90;;;;;;5013006;28;20669;-76
2023/05/19 02:49:47;;;;;;;2.90;1.30;;;8.70;62.90;;;;;;4993408;28;20037;-76
2023/05/19 02:52:12;;;;;;;5.25;1.30;;;8.60;63.00;;;;;;5012794;28;20482;-76
2023/05/19 02:54:38;;;;;;;3.05;1.23;;;8.60;63.20;;;;;;4997118;28;20482;-76
2023/05/19 02:57:03;;;;;;;1.92;1.00;;;8.60;63.20;;;;;;5011266;28;20033;-76
2023/05/19 02:59:30;;;;;;;3.03;1.05;;;8.60;63.30;;;;;;5014293;28;20564;-78
2023/05/19 03:02:00;;;;;;;4.85;1.15;;;8.60;63.40;;;;;;4983531;28;20615;-76
2023/05/19 03:04:26;;;;;;;4.28;1.10;;;8.60;63.60;;;;;;4969890;28;20044;-76
2023/05/19 03:06:52;;;;;;;2.25;1.38;;;8.60;63.60;;;;;;4979210;28;20042;-76
2023/05/19 03:09:18;;;;;;;3.28;1.15;;;8.50;63.60;;;;;;4956563;28;20041;-76
2023/05/19 03:11:44;;;;;;;2.30;1.10;;;8.50;63.70;;;;;;5003893;28;20400;-75
2023/05/19 03:14:09;;;;;;;4.35;1.30;;;8.50;63.90;;;;;;4994249;28;20042;-76
2023/05/19 03:16:35;;;;;;;2.97;1.08;;;8.50;63.90;;;;;;4996579;28;20611;-76
2023/05/19 03:19:00;;;;;;;2.13;1.10;;;8.50;64.00;;;;;;4980311;28;20798;-75
2023/05/19 03:21:26;;;;;;;3.63;1.10;;;8.50;64.10;;;;;;4995224;28;20030;-76
2023/05/19 03:23:52;;;;;;;3.00;1.20;;;8.50;64.10;;;;;;4990185;28;20432;-76
2023/05/19 03:26:17;;;;;;;2.17;1.27;;;8.40;64.20;;;;;;4996258;28;20038;-76
2023/05/19 03:28:43;;;;;;;3.08;1.15;;;8.40;64.20;;;;;;4997224;28;20041;-76
2023/05/19 03:31:08;;;;;;;2.00;1.00;;;8.40;64.30;;;;;;4993613;28;20078;-75
2023/05/19 03:33:34;;;;;;;2.22;1.10;;;8.40;64.40;;;;;;4998274;28;20052;-76
2023/05/19 03:35:59;;;;;;;5.30;1.23;;;8.40;64.40;;;;;;4996338;28;20090;-75
2023/05/19 03:38:25;;;;;;;4.00;1.50;;;8.40;64.50;;;;;;4997395;28;20044;-76
2023/05/19 03:40:50;;;;;;;3.20;1.10;;;8.40;64.60;;;;;;4996326;28;20092;-76
2023/05/19 03:43:16;;;;;;;4.82;1.20;;;8.40;64.80;;;;;;4993320;28;20112;-76
2023/05/19 03:45:42;;;;;;;3.55;1.42;;;8.30;64.80;;;;;;4980695;28;20107;-75
2023/05/19 03:48:07;;;;;;;1.77;1.20;;;8.30;64.80;;;;;;4979866;28;20420;-76
2023/05/19 03:50:33;;;;;;;2.88;1.10;;;8.30;65.10;;;;;;4954659;28;20074;-76
2023/05/19 03:52:59;;;;;;;2.90;1.42;;;8.30;65.10;;;;;;4983969;28;20042;-75
2023/05/19 03:55:24;;;;;;;2.05;1.10;;;8.30;65.10;;;;;;4979950;28;20073;-76
2023/05/19 03:57:51;;;;;;;6.32;1.27;;;8.30;65.20;;;;;;4994450;28;20580;-75
2023/05/19 04:00:17;;;;;;;4.00;1.65;;;8.30;65.30;;;;;;4993878;28;20041;-76
2023/05/19 04:02:43;;;;;;;2.97;1.25;;;8.30;65.40;;;;;;4990632;28;20042;-76
2023/05/19 04:05:09;;;;;;;2.25;1.60;;;8.30;65.60;;;;;;4979813;28;20048;-75
2023/05/19 04:07:34;;;;;;;2.65;1.40;;;8.30;65.70;;;;;;4979018;28;20042;-76
2023/05/19 04:10:01;;;;;;;3.80;1.30;;;8.30;65.80;;;;;;4971325;28;20072;-75
2023/05/19 04:12:26;;;;;;;3.03;1.23;;;8.40;65.90;;;;;;4991379;28;20169;-76
2023/05/19 04:14:52;;;;;;;3.40;1.67;;;8.40;66.10;;;;;;4994891;28;20069;-76
2023/05/19 04:17:17;;;;;;;4.18;1.20;;;8.40;66.30;;;;;;4996172;28;20104;-76
2023/05/19 04:19:43;;;;;;;1.83;1.02;;;8.40;66.50;;;;;;4990767;28;20045;-76
2023/05/19 04:22:09;;;;;;;4.43;1.20;;;8.40;66.70;;;;;;4992773;28;20045;-76
2023/05/19 04:24:35;;;;;;;8.15;1.40;;;8.40;66.80;;;;;;4995411;28;20042;-77
2023/05/19 04:27:01;;;;;;;4.13;1.23;;;8.50;67.00;;;;;;4996785;28;20037;-76
2023/05/19 04:29:28;;;;;;;2.30;1.10;;;8.50;67.10;;;;;;4976414;28;20334;-76
2023/05/19 04:31:54;;;;;;;3.05;1.45;;;8.50;67.30;;;;;;4970672;28;20080;-75
2023/05/19 04:34:19;;;;;;;3.83;1.45;;;8.50;67.40;;;;;;4963331;28;20122;-76
2023/05/19 04:36:45;;;;;;;1.90;1.20;;;8.60;67.60;;;;;;4997532;28;20623;-77
2023/05/19 04:39:11;;;;;;;2.80;1.25;;;8.60;67.50;;;;;;4966419;28;20560;-76
2023/05/19 04:41:39;;;;;;;3.10;1.08;;;8.60;68.30;;;;;;4975095;28;20034;-76
2023/05/19 04:44:06;;;;;;;3.97;1.40;;;8.70;67.70;;;;;;4973867;28;20166;-77
2023/05/19 04:46:31;;;;;;;3.03;1.40;;;8.70;67.70;;;;;;4982413;28;20030;-76
2023/05/19 04:48:59;;;;;;;2.50;1.30;;;8.80;67.80;;;;;;4988240;28;20044;-76
2023/05/19 04:51:30;;;;;;;7.50;1.65;;;8.80;67.90;;;;;;5001991;28;20042;-76
2023/05/19 04:53:55;;;;;;;3.83;1.25;;;8.80;68.00;;;;;;4987325;28;20146;-75
2023/05/19 04:56:21;;;;;;;4.40;1.30;;;8.90;68.20;;;;;;4996424;28;20030;-76
2023/05/19 04:58:47;;;;;;;2.72;1.48;;;8.90;68.30;;;;;;4993737;28;20044;-76
2023/05/19 05:01:14;;;;;;;4.43;1.60;;;9.00;68.40;;;;;;4978810;28;20673;-76
2023/05/19 05:03:40;;;;;;;5.65;1.42;;;9.00;68.40;;;;;;4995560;28;20843;-76
2023/05/19 05:06:06;;;;;;;2.58;1.20;;;9.10;68.40;;;;;;4994151;28;20168;-76
2023/05/19 05:08:31;;;;;;;3.45;1.95;;;9.10;68.40;;;;;;4993574;28;20037;-76
2023/05/19 05:10:57;;;;;;;5.53;2.15;;;9.20;68.40;;;;;;4992792;28;20084;-76
2023/05/19 05:13:23;;;;;;;4.65;1.65;;;9.20;68.30;;;;;;4992157;28;20061;-77
2023/05/19 05:15:50;;;;;;;8.38;1.85;;;9.30;68.30;;;;;;4993957;28;20038;-77
2023/05/19 05:18:16;;;;;;;6.07;1.38;;;9.40;68.20;;;;;;4981009;28;20037;-77
2023/05/19 05:20:42;;;;;;;3.90;1.63;;;9.40;68.00;;;;;;4993263;28;20038;-78
2023/05/19 05:23:09;;;;;;;4.88;1.50;;;9.50;67.90;;;;;;4975848;28;20677;-77
2023/05/19 05:25:35;;;;;;;7.45;1.40;;;9.50;67.70;;;;;;4994830;28;20042;-76
2023/05/19 05:28:04;;;;;;;4.13;1.60;;;9.60;67.60;;;;;;4994270;28;20042;-77
2023/05/19 05:30:30;;;;;;;7.10;1.95;;;9.60;67.40;;;;;;4991428;28;20683;-76
2023/05/19 05:32:56;;;;;;;6.97;1.63;;;9.80;67.40;;;;;;4980964;28;20049;-76
2023/05/19 05:35:22;;;;;;;3.70;1.60;;;9.80;67.30;;;;;;4990702;28;20062;-76
2023/05/19 05:37:47;;;;;;;3.72;1.40;;;9.80;67.20;;;;;;4978101;28;20038;-76
2023/05/19 05:40:13;;;;;;;7.10;2.00;;;9.90;67.10;;;;;;4994152;28;20104;-76
2023/05/19 05:42:39;;;;;;;11.82;1.73;;;10.00;67.00;;;;;;4981914;28;20081;-76
2023/05/19 05:45:05;;;;;;;5.10;1.65;;;10.00;66.90;;;;;;4978726;28;20041;-76
2023/05/19 05:47:31;;;;;;;5.03;1.60;;;10.10;66.80;;;;;;4998011;28;20064;-77
2023/05/19 05:49:56;;;;;;;6.03;3.20;;;10.20;66.70;;;;;;4963531;28;20531;-76
2023/05/19 05:52:22;;;;;;;6.35;2.40;;;10.30;66.70;;;;;;4998254;28;20045;-76
2023/05/19 05:54:48;;;;;;;5.53;2.92;;;10.30;66.50;;;;;;4996857;28;20314;-75
2023/05/19 05:57:13;;;;;;;10.23;4.40;;;10.40;66.40;;;;;;5014247;28;20045;-77
2023/05/19 05:59:39;;;;;;;55.80;28.90;;;10.50;66.30;;;;;;5020397;28;20129;-77
2023/05/19 06:02:05;;;;;;;34.53;19.42;;;10.50;66.20;;;;;;5010078;28;20445;-76
2023/05/19 06:04:31;;;;;;;10.05;5.65;;;10.60;66.20;;;;;;5011101;28;20041;-75
2023/05/19 06:06:59;;;;;;;23.30;15.15;;;10.70;66.00;;;;;;5011477;28;20077;-77
2023/05/19 06:09:25;;;;;;;8.98;3.20;;;10.80;65.90;;;;;;5013271;28;20041;-77
2023/05/19 06:11:51;;;;;;;10.50;4.07;;;10.90;65.80;;;;;;4997302;28;20868;-76
2023/05/19 06:14:17;;;;;;;11.55;3.17;;;11.00;65.60;;;;;;5014017;28;20491;-76
2023/05/19 06:16:43;;;;;;;14.98;5.60;;;11.10;65.50;;;;;;5013169;28;20075;-77
2023/05/19 06:19:08;;;;;;;35.80;21.35;;;11.20;65.50;;;;;;5004874;28;20041;-76
2023/05/19 06:21:34;;;;;;;6.88;3.58;;;11.30;65.30;;;;;;5005463;28;20064;-76
2023/05/19 06:23:59;;;;;;;5.00;2.10;;;11.40;65.30;;;;;;5007467;28;20098;-75
2023/05/19 06:26:25;;;;;;;5.93;2.05;;;11.40;65.00;;;;;;5006618;28;20068;-75
2023/05/19 06:28:51;;;;;;;5.20;1.83;;;11.60;64.80;;;;;;4989395;28;20144;-75
2023/05/19 06:31:16;;;;;;;4.07;1.60;;;11.70;64.70;;;;;;5011433;28;20099;-75
2023/05/19 06:33:42;;;;;;;3.92;1.58;;;11.80;64.50;;;;;;5006874;28;20080;-75
2023/05/19 06:36:08;;;;;;;5.60;2.22;;;11.90;64.30;;;;;;5011296;28;20042;-75
2023/05/19 06:38:34;;;;;;;4.90;1.83;;;12.00;64.10;;;;;;5006814;28;20041;-75
2023/05/19 06:41:00;;;;;;;5.97;1.55;;;12.10;63.90;;;;;;5008451;28;20713;-75
2023/05/19 06:43:25;;;;;;;3.83;1.35;;;12.20;63.80;;;;;;5018147;28;20046;-75
2023/05/19 06:45:51;;;;;;;6.07;1.33;;;12.30;63.60;;;;;;5028420;28;20037;-75
2023/05/19 06:48:16;;;;;;;4.85;1.48;;;12.50;63.40;;;;;;5020211;28;20065;-75
2023/05/19 06:50:42;;;;;;;8.80;1.52;;;12.60;63.10;;;;;;5020139;28;20086;-75
2023/05/19 06:53:07;;;;;;;6.18;1.75;;;12.70;63.00;;;;;;4983009;28;20498;-76
2023/05/19 06:55:33;;;;;;;2.78;1.90;;;12.80;62.70;;;;;;4995345;28;21937;-76
2023/05/19 06:57:58;;;;;;;7.90;2.03;;;12.90;62.50;;;;;;4985000;28;20508;-77
2023/05/19 07:00:24;;;;;;;2.70;1.30;;;13.00;62.20;;;;;;4968018;28;20169;-76
2023/05/19 07:02:50;;;;;;;6.53;2.05;;;13.10;62.10;;;;;;4986654;28;20038;-75
2023/05/19 07:05:15;;;;;;;4.72;2.10;;;13.20;61.90;;;;;;4959259;28;20119;-75
2023/05/19 07:07:41;;;;;;;4.82;1.50;;;13.30;61.70;;;;;;4973756;28;20042;-76
2023/05/19 07:10:07;;;;;;;4.20;1.40;;;13.40;61.50;;;;;;4956813;28;20058;-75
2023/05/19 07:12:32;;;;;;;5.63;1.33;;;13.50;61.20;;;;;;4989915;28;20561;-75
2023/05/19 07:14:58;;;;;;;6.00;1.55;;;13.70;61.00;;;;;;4965606;28;20084;-76
2023/05/19 07:17:23;;;;;;;7.30;1.70;;;13.90;60.70;;;;;;4983121;28;20058;-76
2023/05/19 07:19:49;;;;;;;3.47;1.25;;;14.00;60.40;;;;;;4966714;28;20755;-75
2023/05/19 07:22:15;;;;;;;5.72;1.77;;;14.20;60.10;;;;;;4966593;28;20606;-75
2023/05/19 07:24:40;;;;;;;2.53;1.20;;;14.40;59.90;;;;;;4961430;28;20034;-76
2023/05/19 07:27:06;;;;;;;3.13;1.50;;;14.50;59.60;;;;;;4978841;28;20030;-76
2023/05/19 07:29:31;;;;;;;4.32;1.50;;;14.70;59.30;;;;;;4988433;28;20034;-76
2023/05/19 07:31:57;;;;;;;5.00;1.55;;;14.80;59.00;;;;;;4993240;28;20578;-76
2023/05/19 07:34:23;;;;;;;3.90;1.70;;;14.90;58.70;;;;;;4986940;28;20034;-76
2023/05/19 07:36:50;;;;;;;3.83;1.63;;;15.00;58.60;;;;;;4996288;28;20037;-75
2023/05/19 07:39:16;;;;;;;9.43;1.70;;;15.10;58.40;;;;;;4990627;28;20701;-76
2023/05/19 07:41:41;;;;;;;8.13;1.77;;;15.20;58.20;;;;;;4978953;28;20038;-76
2023/05/19 07:44:07;;;;;;;5.25;1.27;;;15.30;57.90;;;;;;4978130;28;20073;-75
2023/05/19 07:46:36;;;;;;;4.00;1.40;;;15.40;57.70;;;;;;4994170;28;20034;-76
2023/05/19 07:49:02;;;;;;;4.07;1.25;;;15.50;57.40;;;;;;4979426;28;20137;-76
2023/05/19 07:51:28;;;;;;;4.35;1.40;;;15.60;57.20;;;;;;4977163;28;20096;-76
2023/05/19 07:53:53;;;;;;;4.30;1.80;;;15.70;57.00;;;;;;4995326;28;20049;-76
2023/05/19 07:56:19;;;;;;;4.43;1.50;;;15.80;56.90;;;;;;4961291;28;20042;-76
2023/05/19 07:58:44;;;;;;;4.60;1.50;;;15.80;56.70;;;;;;4980487;28;20045;-76
2023/05/19 08:01:10;;;;;;;4.90;1.95;;;15.90;56.60;;;;;;4994413;28;20084;-75
2023/05/19 08:03:35;;;;;;;2.75;1.33;;;16.00;56.50;;;;;;4978366;28;20049;-76
2023/05/19 08:06:01;;;;;;;4.93;1.30;;;16.10;56.30;;;;;;4995747;28;20034;-76
2023/05/19 08:08:26;;;;;;;5.10;1.40;;;16.30;56.20;;;;;;4992876;28;20037;-76
2023/05/19 08:10:52;;;;;;;4.25;1.63;;;16.40;56.00;;;;;;4993274;28;20052;-75
2023/05/19 08:13:17;;;;;;;3.45;1.35;;;16.50;55.70;;;;;;4992556;28;20049;-75
2023/05/19 08:15:43;;;;;;;4.40;1.30;;;16.70;55.50;;;;;;4996035;28;20042;-76
2023/05/19 08:18:08;;;;;;;4.22;1.55;;;16.80;55.30;;;;;;4994900;28;20038;-76
2023/05/19 08:20:34;;;;;;;4.35;1.67;;;16.90;55.10;;;;;;4994591;28;20050;-76
2023/05/19 08:23:00;;;;;;;5.60;1.58;;;16.90;54.70;;;;;;4980207;28;20041;-76
2023/05/19 08:25:25;;;;;;;3.97;1.50;;;17.00;54.50;;;;;;4977625;28;20042;-76
2023/05/19 08:27:51;;;;;;;4.13;1.40;;;17.00;54.40;;;;;;4976877;28;20044;-76
2023/05/19 08:30:16;;;;;;;6.50;1.55;;;17.10;54.30;;;;;;4977982;28;20136;-75
2023/05/19 08:32:42;;;;;;;4.72;1.55;;;17.20;54.10;;;;;;4995589;28;20064;-76
2023/05/19 08:35:08;;;;;;;6.90;1.98;;;17.20;53.80;;;;;;4994118;28;20683;-76
2023/05/19 08:37:35;;;;;;;3.45;1.40;;;17.30;53.70;;;;;;4953716;28;20118;-76
2023/05/19 08:40:03;;;;;;;4.93;1.70;;;17.30;53.50;;;;;;4978114;28;20515;-76
2023/05/19 08:42:29;;;;;;;4.43;1.58;;;17.40;53.30;;;;;;4994205;28;20042;-76
2023/05/19 08:44:54;;;;;;;6.47;1.63;;;17.50;53.20;;;;;;4962892;28;20045;-76
2023/05/19 08:47:21;;;;;;;5.47;1.40;;;17.60;53.20;;;;;;4960337;28;20037;-76
2023/05/19 08:49:49;;;;;;;8.15;1.65;;;17.70;53.00;;;;;;4963032;28;20708;-75
2023/05/19 08:52:24;;;;;;;5.45;1.42;;;17.80;52.80;;;;;;4994233;28;20064;-76
2023/05/19 08:54:53;;;;;;;3.47;1.73;;;18.00;52.30;;;;;;4964383;28;20034;-75
2023/05/19 08:57:19;;;;;;;3.05;1.23;;;18.10;52.10;;;;;;4991935;28;20064;-76
2023/05/19 08:59:44;;;;;;;4.60;1.50;;;18.30;52.00;;;;;;4964035;28;20671;-76
2023/05/19 09:02:10;;;;;;;3.75;1.58;;;18.40;51.60;;;;;;4975143;28;20084;-76
2023/05/19 09:04:36;;;;;;;3.60;2.03;;;18.50;51.30;;;;;;4977500;28;20088;-76
2023/05/19 09:07:02;;;;;;;5.40;1.55;;;18.60;51.30;;;;;;4994482;28;20045;-76
2023/05/19 09:09:29;;;;;;;5.28;2.10;;;18.70;51.00;;;;;;4978001;28;20046;-76
2023/05/19 09:11:54;;;;;;;4.00;1.65;;;18.70;50.90;;;;;;4993306;28;20045;-76
2023/05/19 09:14:20;;;;;;;3.45;1.85;;;18.80;50.70;;;;;;4977455;28;20046;-75
2023/05/19 09:16:49;;;;;;;5.50;2.28;;;18.90;50.70;;;;;;4993474;28;20041;-76
2023/05/19 09:19:15;;;;;;;4.32;1.40;;;19.00;50.60;;;;;;4994973;28;20038;-76
2023/05/19 09:21:40;;;;;;;4.78;1.50;;;19.10;50.50;;;;;;4998945;28;20044;-76
2023/05/19 09:24:07;;;;;;;3.58;1.33;;;19.20;50.40;;;;;;4978435;28;20095;-76
2023/05/19 09:26:37;;;;;;;7.25;1.88;;;19.20;50.00;;;;;;4963859;28;20030;-76
2023/05/19 09:29:12;;;;;;;5.38;1.60;;;19.20;49.80;;;;;;4991493;28;20480;-76
2023/05/19 09:31:38;;;;;;;4.88;1.60;;;19.30;49.70;;;;;;4961175;28;20120;-76
2023/05/19 09:34:04;;;;;;;6.72;2.15;;;19.30;49.60;;;;;;4963487;28;20413;-77
2023/05/19 09:36:30;;;;;;;5.13;1.80;;;19.40;49.40;;;;;;4978140;28;20519;-76
2023/05/19 09:38:55;;;;;;;5.57;1.63;;;19.40;49.20;;;;;;4994911;28;20526;-76
2023/05/19 09:41:22;;;;;;;4.95;1.40;;;19.50;49.20;;;;;;4992427;28;20037;-76
2023/05/19 09:43:53;;;;;;;4.63;1.50;;;19.50;49.00;;;;;;4994015;28;20041;-76
2023/05/19 09:46:19;;;;;;;4.78;1.35;;;19.60;48.90;;;;;;4957081;28;20092;-76
2023/05/19 09:48:45;;;;;;;6.18;1.38;;;19.70;48.90;;;;;;4958049;28;20772;-76
2023/05/19 09:51:11;;;;;;;4.55;2.03;;;19.80;48.70;;;;;;4973441;28;20639;-76
2023/05/19 09:53:37;;;;;;;3.45;1.40;;;20.00;48.60;;;;;;4977315;28;20042;-76
2023/05/19 09:56:03;;;;;;;2.65;1.17;;;20.20;48.50;;;;;;4986462;28;20057;-77
2023/05/19 09:58:35;;;;;;;6.00;1.35;;;20.30;48.20;;;;;;4990591;28;20045;-76
2023/05/19 10:01:00;;;;;;;3.67;1.30;;;20.40;48.00;;;;;;4967208;28;20069;-76
2023/05/19 10:03:26;;;;;;;4.47;1.50;;;20.60;48.00;;;;;;4982990;28;20121;-76
2023/05/19 10:05:52;;;;;;;5.03;1.55;;;20.80;47.90;;;;;;4965483;28;20610;-76
2023/05/19 10:08:17;;;;;;;2.78;1.23;;;20.90;47.60;;;;;;4979025;28;20123;-76
2023/05/19 10:10:46;;;;;;;3.03;1.50;;;21.10;47.40;;;;;;4992084;28;20041;-74
2023/05/19 10:13:12;;;;;;;4.25;1.50;;;21.20;47.10;;;;;;4979889;28;20053;-76
2023/05/19 10:15:39;;;;;;;4.80;1.10;;;21.30;46.90;;;;;;4978997;28;20042;-75
2023/05/19 10:18:04;;;;;;;3.20;1.25;;;21.30;46.60;;;;;;4939135;28;20058;-75
2023/05/19 10:20:30;;;;;;;4.50;1.20;;;21.40;46.50;;;;;;4980216;28;20041;-74
2023/05/19 10:22:55;;;;;;;3.33;1.17;;;21.40;46.50;;;;;;4981854;28;20036;-74
2023/05/19 10:25:21;;;;;;;3.28;1.30;;;21.50;46.50;;;;;;5012299;28;20030;-75
2023/05/19 10:27:58;;;;;;;1.75;1.10;;;21.70;46.30;;;;;;4994773;28;20057;-75
2023/05/19 10:30:44;;;;;;;3.42;1.50;;;21.80;45.90;;;;;;4977178;28;20115;-74
2023/05/19 10:33:13;;;;;;;3.08;1.65;;;21.90;45.60;;;;;;4995722;28;20086;-75
2023/05/19 10:36:13;;;;;;;2.08;1.30;;;22.00;45.90;;;;;;4980152;28;20041;-74
2023/05/19 10:38:56;;;;;;;3.35;1.48;;;22.10;45.60;;;;;;4957486;28;20130;-75
2023/05/19 10:41:41;;;;;;;3.30;1.38;;;22.30;45.10;;;;;;4978323;28;20045;-75
2023/05/19 10:44:07;;;;;;;1.58;1.13;;;22.30;44.80;;;;;;5011325;28;20102;-74
2023/05/19 10:46:32;;;;;;;6.68;1.95;;;22.30;45.20;;;;;;5011962;28;20053;-74
2023/05/19 10:48:58;;;;;;;4.03;1.05;;;22.30;45.90;;;;;;4994923;28;20645;-75
2023/05/19 10:51:30;;;;;;;5.47;1.27;;;22.30;45.00;;;;;;4993603;28;20033;-75
2023/05/19 10:53:57;;;;;;;2.38;1.45;;;22.40;44.70;;;;;;4994717;28;20045;-75
2023/05/19 10:56:32;;;;;;;1.60;1.00;;;22.50;44.80;;;;;;5006736;28;20060;-75
2023/05/19 10:58:58;;;;;;;2.88;1.00;;;22.50;44.10;;;;;;4980137;28;20121;-75
2023/05/19 11:01:29;;;;;;;1.70;1.30;;;22.60;44.50;;;;;;4978359;28;20171;-75
2023/05/19 11:03:58;;;;;;;2.05;1.17;;;22.60;44.20;;;;;;4990080;28;20183;-75
2023/05/19 11:30:29;;;;;;;3.35;1.00;;;23.00;43.20;;;;;;5020434;28;20028;-75
2023/05/19 11:32:54;;;;;;;1.92;1.08;;;23.10;43.20;;;;;;5016818;28;20453;-75
2023/05/19 11:35:21;;;;;;;2.53;1.00;;;23.10;43.70;;;;;;4980730;28;20032;-75
2023/05/19 11:37:46;;;;;;;4.72;1.05;;;23.00;43.40;;;;;;4997161;28;20022;-75
2023/05/19 11:40:12;;;;;;;3.90;1.15;;;23.10;43.40;;;;;;4986362;28;20029;-75
2023/05/19 11:42:38;;;;;;;2.45;1.50;;;23.00;43.20;;;;;;4983394;28;20096;-75
2023/05/19 11:45:04;;;;;;;1.85;1.17;;;23.00;43.20;;;;;;5003926;28;20032;-75
2023/05/19 11:47:30;;;;;;;4.60;1.50;;;23.10;43.10;;;;;;4982402;28;20064;-75
2023/05/19 11:49:55;;;;;;;3.45;1.63;;;23.10;43.00;;;;;;5000986;28;20112;-75
2023/05/19 11:52:22;;;;;;;3.00;0.93;;;23.10;43.00;;;;;;5011652;28;20149;-75
2023/05/19 11:54:47;;;;;;;2.60;1.10;;;23.00;43.00;;;;;;5020343;28;20033;-75
2023/05/19 11:57:13;;;;;;;4.50;1.15;;;23.10;42.80;;;;;;4969575;28;20056;-75
2023/05/19 11:59:42;;;;;;;3.05;1.30;;;23.10;42.80;;;;;;4999517;28;20103;-75
2023/05/19 12:02:18;;;;;;;1.48;0.85;;;23.00;42.70;;;;;;5003172;28;20063;-75
2023/05/19 12:04:43;;;;;;;3.30;0.80;;;23.00;42.30;;;;;;4998937;28;20029;-75
2023/05/19 12:07:12;;;;;;;3.92;1.40;;;23.00;42.50;;;;;;4994885;28;20033;-76
2023/05/19 12:09:38;;;;;;;2.60;1.08;;;23.10;42.40;;;;;;5010186;28;20038;-75
2023/05/19 12:12:04;;;;;;;1.88;1.30;;;23.10;42.40;;;;;;4998387;28;20053;-75
2023/05/19 12:14:30;;;;;;;2.45;1.10;;;23.20;42.20;;;;;;5015789;28;20786;-74
2023/05/19 12:16:56;;;;;;;2.42;0.95;;;23.10;42.00;;;;;;5018399;28;20025;-75
2023/05/19 12:19:22;;;;;;;1.13;0.70;;;23.20;42.10;;;;;;5006813;28;20124;-75
2023/05/19 12:21:48;;;;;;;2.55;1.40;;;23.30;42.10;;;;;;4996007;28;20025;-75
2023/05/19 12:24:13;;;;;;;2.33;1.42;;;23.30;42.10;;;;;;4968180;28;20041;-75
2023/05/19 12:26:39;;;;;;;4.50;1.27;;;23.20;42.10;;;;;;4983543;28;20061;-75
2023/05/19 12:29:06;;;;;;;1.23;1.13;;;23.30;42.00;;;;;;4986341;28;20116;-75
2023/05/19 12:31:33;;;;;;;5.03;1.70;;;23.20;41.80;;;;;;4984161;28;20534;-75
2023/05/19 12:33:58;;;;;;;4.65;1.20;;;23.20;41.80;;;;;;4985374;28;20047;-75
2023/05/19 12:36:24;;;;;;;5.47;1.33;;;23.20;41.70;;;;;;4970483;28;20029;-75
2023/05/19 12:38:55;;;;;;;5.15;1.50;;;23.10;41.60;;;;;;4996958;28;20044;-76
2023/05/19 12:41:23;;;;;;;2.30;1.38;;;23.20;41.50;;;;;;4995423;28;20093;-75
2023/05/19 12:43:49;;;;;;;1.55;0.93;;;23.20;41.60;;;;;;4999358;28;20029;-75
2023/05/19 12:46:17;;;;;;;2.30;1.27;;;23.30;41.50;;;;;;4998607;28;20412;-74
2023/05/19 12:48:43;;;;;;;2.20;1.00;;;23.20;41.20;;;;;;4999810;28;20095;-75
2023/05/19 12:51:09;;;;;;;3.53;1.27;;;23.20;41.10;;;;;;4999208;28;20038;-75
2023/05/19 12:53:36;;;;;;;5.13;1.23;;;23.20;41.10;;;;;;4999960;28;20587;-75
2023/05/19 12:56:02;;;;;;;4.95;1.25;;;23.20;40.90;;;;;;4984186;28;20112;-75
2023/05/19 12:58:32;;;;;;;4.05;1.25;;;23.20;40.90;;;;;;4968905;28;21407;-75
2023/05/19 13:00:59;;;;;;;6.35;1.30;;;23.20;40.70;;;;;;4979068;28;20042;-75
2023/05/19 13:03:24;;;;;;;3.17;1.13;;;23.20;40.50;;;;;;4960449;28;20084;-75
2023/05/19 13:05:50;;;;;;;7.28;1.50;;;23.20;40.50;;;;;;4978614;28;20030;-75
2023/05/19 13:08:17;;;;;;;2.33;1.20;;;23.10;40.60;;;;;;4975713;28;20088;-75
2023/05/19 13:10:43;;;;;;;1.58;1.13;;;23.10;40.60;;;;;;4978721;28;20160;-75
2023/05/19 13:13:09;;;;;;;3.17;0.98;;;23.10;40.60;;;;;;4962639;28;20125;-75